Time;durP1;ratioP1;P1;durP2;ratioP2;P2;SDS_P1;SDS_P2;PMS_P1;PMS_P2;Temp;Humidity;BMP_temperature;BMP_pressure;BME280_temperature;BME280_humidity;BME280_pressure;Samples;Min_cycle;Max_cycle;Signal;HPM_P1;HPM_P2
2023/03/21 00:01:19;;;;;;;4.30;3.87;;;8.30;99.90;;;9.13;96.88;98151.16;5231208;28;20279;-61
2023/03/21 00:03:53;;;;;;;4.80;4.17;;;8.20;99.90;;;9.08;96.63;98149.97;5244403;28;20220;-62
2023/03/21 00:06:26;;;;;;;4.47;3.90;;;8.20;99.90;;;9.02;97.37;98146.22;5243305;28;20207;-61
2023/03/21 00:09:00;;;;;;;4.13;3.83;;;8.20;99.90;;;8.92;96.55;98148.91;5234720;28;20397;-61
2023/03/21 00:11:33;;;;;;;4.33;3.70;;;8.10;99.90;;;8.94;96.78;98147.38;5239684;28;20234;-61
2023/03/21 00:14:07;;;;;;;5.07;4.57;;;8.20;99.90;;;8.98;96.87;98140.81;5242043;28;20220;-61
2023/03/21 00:16:44;;;;;;;4.53;4.23;;;8.20;99.90;;;8.94;97.35;98137.16;5233458;28;20227;-61
2023/03/21 00:19:20;;;;;;;4.70;4.30;;;8.10;99.90;;;8.95;97.53;98140.59;5242614;28;20219;-62
2023/03/21 00:21:54;;;;;;;6.40;4.43;;;8.20;99.90;;;8.93;96.96;98142.19;5243657;28;20200;-61
2023/03/21 00:24:40;;;;;;;5.27;4.63;;;8.10;99.90;;;8.87;97.35;98135.00;5233365;28;20213;-61
2023/03/21 00:27:13;;;;;;;4.57;4.17;;;8.00;99.90;;;8.83;97.83;98138.09;5239288;28;20219;-61
2023/03/21 00:30:07;;;;;;;4.57;4.27;;;8.00;99.90;;;8.81;97.92;98139.66;5236455;28;20201;-61
2023/03/21 00:32:41;;;;;;;5.47;4.97;;;7.90;99.90;;;8.78;98.40;98136.91;5244005;28;20499;-62
2023/03/21 00:35:29;;;;;;;5.40;4.90;;;7.90;99.90;;;8.76;98.45;98135.94;5236579;28;20261;-62
2023/03/21 00:38:24;;;;;;;5.67;4.70;;;7.90;99.90;;;8.74;98.84;98142.59;5232885;28;20204;-61
2023/03/21 00:40:57;;;;;;;5.33;4.83;;;7.90;99.90;;;8.71;98.61;98134.72;5242745;28;20196;-62
2023/03/21 00:43:36;;;;;;;5.37;4.97;;;7.80;99.90;;;8.67;98.89;98130.19;5239940;28;20228;-61
2023/03/21 00:46:10;;;;;;;4.80;4.40;;;7.80;99.90;;;8.66;98.30;98130.97;5246446;28;20204;-61
2023/03/21 00:48:43;;;;;;;4.17;3.87;;;7.70;99.90;;;8.63;98.25;98129.09;5239291;28;20632;-61
2023/03/21 00:51:25;;;;;;;4.53;4.13;;;7.70;99.90;;;8.62;97.90;98121.38;5239973;28;20229;-60
2023/03/21 00:53:59;;;;;;;4.90;4.30;;;7.70;99.90;;;8.57;98.38;98114.28;5240810;28;20224;-61
2023/03/21 00:56:32;;;;;;;4.47;4.07;;;7.70;99.90;;;8.52;99.07;98115.59;5241912;28;20211;-61
2023/03/21 00:59:05;;;;;;;4.80;4.40;;;7.70;99.90;;;8.51;99.59;98121.50;5241191;28;20197;-61
2023/03/21 01:01:38;;;;;;;5.83;4.40;;;7.70;99.90;;;8.46;100.00;98110.09;5237096;28;20301;-61
2023/03/21 01:04:13;;;;;;;4.20;3.90;;;7.70;99.90;;;8.48;100.00;98112.75;5241423;28;20220;-62
2023/03/21 01:06:48;;;;;;;4.97;4.47;;;7.70;99.90;;;8.51;100.00;98108.75;5235248;28;20219;-62
2023/03/21 01:09:23;;;;;;;4.87;4.47;;;7.70;99.90;;;8.53;100.00;98109.75;5239042;28;20207;-61
2023/03/21 01:11:56;;;;;;;4.47;4.07;;;7.70;99.90;;;8.57;100.00;98104.06;5237455;28;20227;-62
2023/03/21 01:14:29;;;;;;;5.43;4.07;;;7.70;99.90;;;8.56;100.00;98101.44;5240239;28;20216;-61
2023/03/21 01:17:03;;;;;;;4.80;4.30;;;7.70;99.90;;;8.57;100.00;98100.66;5247839;28;20223;-62
2023/03/21 01:19:36;;;;;;;5.33;4.90;;;7.80;99.90;;;8.59;100.00;98095.69;5234140;28;20201;-61
2023/03/21 01:22:25;;;;;;;5.53;4.37;;;7.80;99.90;;;8.62;100.00;98101.84;5239056;28;20189;-61
2023/03/21 01:24:58;;;;;;;4.63;4.23;;;7.80;99.90;;;8.62;100.00;98094.22;5245010;28;20231;-61
2023/03/21 01:27:51;;;;;;;4.60;4.20;;;7.80;99.90;;;8.62;100.00;98091.66;5243422;28;20197;-62
2023/03/21 01:30:24;;;;;;;4.53;4.23;;;7.70;99.90;;;8.62;100.00;98090.78;5249272;28;20673;-61
2023/03/21 01:33:03;;;;;;;4.87;4.37;;;7.70;99.90;;;8.61;100.00;98094.09;5251243;28;20224;-61
2023/03/21 01:35:37;;;;;;;5.17;4.77;;;7.70;99.90;;;8.62;99.82;98095.88;5239255;28;20197;-61
2023/03/21 01:38:26;;;;;;;5.20;4.80;;;7.70;99.90;;;8.54;99.74;98093.69;5240875;28;20236;-61
2023/03/21 01:41:01;;;;;;;5.60;5.10;;;7.70;99.90;;;8.53;100.00;98093.59;5237306;28;20711;-62
2023/03/21 01:43:46;;;;;;;4.73;4.20;;;7.70;99.90;;;8.52;100.00;98090.13;5237021;28;20211;-61
2023/03/21 01:46:38;;;;;;;5.33;4.93;;;7.60;99.90;;;8.56;100.00;98091.25;5243026;28;20239;-61
2023/03/21 01:49:33;;;;;;;6.40;4.80;;;7.70;99.90;;;8.51;99.57;98093.47;5240276;28;20287;-62
2023/03/21 01:52:09;;;;;;;4.50;4.10;;;7.60;99.90;;;8.43;99.88;98089.50;5240155;28;20221;-61
2023/03/21 01:54:58;;;;;;;5.33;4.70;;;7.60;99.90;;;8.33;99.60;98087.09;5240451;28;20256;-61
2023/03/21 01:57:38;;;;;;;4.97;4.43;;;7.50;99.90;;;8.32;100.00;98085.31;5238188;28;20231;-62
2023/03/21 02:00:28;;;;;;;5.30;4.80;;;7.50;99.90;;;8.29;100.00;98082.53;5235258;28;20205;-61
2023/03/21 02:03:07;;;;;;;4.73;4.33;;;7.50;99.90;;;8.28;100.00;98083.34;5233744;28;20239;-61
2023/03/21 02:05:53;;;;;;;4.90;4.60;;;7.50;99.90;;;8.31;100.00;98079.34;5228762;28;20232;-61
2023/03/21 02:08:28;;;;;;;5.80;5.07;;;7.50;99.90;;;8.24;100.00;98081.34;5231020;28;20251;-61
2023/03/21 02:11:13;;;;;;;4.97;4.57;;;7.50;99.90;;;8.28;100.00;98079.13;5238763;28;20227;-61
2023/03/21 02:13:46;;;;;;;4.67;4.27;;;7.50;99.90;;;8.29;100.00;98074.91;5235309;28;20223;-61
2023/03/21 02:16:33;;;;;;;5.30;4.80;;;7.50;99.90;;;8.33;100.00;98074.34;5240436;28;20227;-62
2023/03/21 02:19:58;;;;;;;5.23;4.73;;;7.50;99.90;;;8.29;100.00;98074.91;5236175;28;20283;-61
2023/03/21 02:23:03;;;;;;;5.10;4.70;;;7.50;99.90;;;8.28;100.00;98071.47;5240312;28;20201;-61
2023/03/21 02:26:16;;;;;;;5.30;4.90;;;7.50;99.90;;;8.35;100.00;98068.59;5237898;28;20216;-62
2023/03/21 02:28:57;;;;;;;5.13;4.73;;;7.50;99.90;;;8.37;100.00;98063.59;5236986;28;20599;-61
2023/03/21 02:31:51;;;;;;;5.27;4.77;;;7.60;99.90;;;8.38;100.00;98055.16;5238601;28;20287;-61
2023/03/21 02:35:00;;;;;;;6.20;5.33;;;7.60;99.90;;;8.35;100.00;98054.94;5242090;28;20240;-61
2023/03/21 02:37:40;;;;;;;5.93;5.03;;;7.60;99.90;;;8.30;100.00;98057.19;5239455;28;20211;-61
2023/03/21 02:40:23;;;;;;;4.60;4.20;;;7.60;99.90;;;8.37;100.00;98062.72;5239144;28;20205;-61
2023/03/21 02:43:07;;;;;;;5.90;4.30;;;7.60;99.90;;;8.36;100.00;98056.75;5238073;28;20193;-61
2023/03/21 02:46:01;;;;;;;5.63;4.80;;;7.60;99.90;;;8.41;100.00;98050.31;5237085;28;20283;-61
2023/03/21 02:48:38;;;;;;;4.83;4.43;;;7.60;99.90;;;8.46;100.00;98053.19;5237304;28;20209;-61
2023/03/21 02:51:24;;;;;;;5.30;4.80;;;7.70;99.90;;;8.48;100.00;98051.63;5233681;28;20287;-61
2023/03/21 02:54:03;;;;;;;5.13;4.63;;;7.70;99.90;;;8.47;100.00;98053.31;5240124;28;20990;-61
2023/03/21 02:56:59;;;;;;;4.80;4.50;;;7.70;99.90;;;8.49;100.00;98048.28;5234474;28;20196;-61
2023/03/21 02:59:35;;;;;;;5.17;4.77;;;7.70;99.90;;;8.52;100.00;98051.03;5240668;28;20213;-61
2023/03/21 03:02:25;;;;;;;4.03;3.73;;;7.70;99.90;;;8.53;100.00;98048.63;5236710;28;20201;-61
2023/03/21 03:04:59;;;;;;;5.50;5.00;;;7.70;99.90;;;8.50;100.00;98040.78;5229879;28;20231;-61
2023/03/21 03:07:40;;;;;;;7.07;4.30;;;7.70;99.90;;;8.51;100.00;98046.75;5241930;28;20204;-61
2023/03/21 03:10:31;;;;;;;5.40;4.90;;;7.70;99.90;;;8.55;100.00;98043.59;5243348;28;20659;-61
2023/03/21 03:13:18;;;;;;;4.83;4.40;;;7.70;99.90;;;8.53;100.00;98040.09;5236723;28;20759;-61
2023/03/21 03:16:04;;;;;;;5.30;4.90;;;7.70;99.90;;;8.52;100.00;98039.19;5234647;28;20558;-61
2023/03/21 03:18:49;;;;;;;5.20;4.77;;;7.70;99.90;;;8.44;100.00;98039.44;5240273;28;20676;-61
2023/03/21 03:21:29;;;;;;;5.57;5.17;;;7.60;99.90;;;8.37;100.00;98042.34;5240448;28;20196;-61
2023/03/21 03:24:07;;;;;;;5.17;4.77;;;7.60;99.90;;;8.34;100.00;98048.09;5243296;28;20212;-61
2023/03/21 03:26:50;;;;;;;4.90;4.50;;;7.50;99.90;;;8.39;100.00;98040.81;5235186;28;20679;-61
2023/03/21 03:29:26;;;;;;;5.10;4.67;;;7.60;99.90;;;8.35;100.00;98048.22;5235148;28;20215;-61
2023/03/21 03:32:05;;;;;;;4.93;4.53;;;7.60;99.90;;;8.39;100.00;98051.88;5239705;28;20659;-61
2023/03/21 03:34:44;;;;;;;5.10;4.70;;;7.60;99.90;;;8.43;100.00;98038.56;5234525;28;20225;-62
2023/03/21 03:37:25;;;;;;;4.87;4.43;;;7.60;99.90;;;8.45;100.00;98043.78;5231249;28;20197;-61
2023/03/21 03:40:04;;;;;;;5.23;4.73;;;7.70;99.90;;;8.51;100.00;98042.53;5235315;28;20219;-62
2023/03/21 03:42:43;;;;;;;4.67;4.37;;;7.70;99.90;;;8.54;100.00;98042.72;5232019;28;20739;-61
2023/03/21 03:45:17;;;;;;;5.00;4.60;;;7.80;99.90;;;8.58;100.00;98043.81;5237993;28;20222;-61
2023/03/21 03:47:57;;;;;;;4.60;4.20;;;7.70;99.90;;;8.59;100.00;98044.72;5231419;28;20283;-61
2023/03/21 03:50:34;;;;;;;4.53;4.13;;;7.80;99.90;;;8.58;100.00;98038.72;5230087;28;20220;-62
2023/03/21 03:53:17;;;;;;;4.90;4.50;;;7.80;99.90;;;8.58;100.00;98041.25;5226912;28;20608;-60
2023/03/21 03:55:53;;;;;;;5.00;4.60;;;7.80;99.90;;;8.56;100.00;98027.56;5230568;28;20197;-61
2023/03/21 03:58:30;;;;;;;5.23;4.83;;;7.80;99.90;;;8.56;100.00;98025.91;5238581;28;20274;-62
2023/03/21 04:01:17;;;;;;;4.87;4.57;;;7.70;99.90;;;8.53;100.00;98020.59;5234715;28;20719;-62
2023/03/21 04:03:50;;;;;;;5.27;4.80;;;7.70;99.90;;;8.54;100.00;98022.34;5228672;28;21886;-61
2023/03/21 04:06:42;;;;;;;5.90;5.30;;;7.70;99.90;;;8.51;100.00;98017.06;5227416;28;20271;-61
2023/03/21 04:09:16;;;;;;;5.13;4.57;;;7.70;99.90;;;8.48;100.00;98021.06;5231003;28;20924;-61
2023/03/21 04:11:55;;;;;;;4.57;4.23;;;7.70;99.90;;;8.51;100.00;98019.59;5237396;28;20348;-62
2023/03/21 04:14:30;;;;;;;5.30;4.90;;;7.70;99.90;;;8.49;100.00;98017.72;5240731;28;20228;-61
2023/03/21 04:17:17;;;;;;;5.00;4.47;;;7.70;99.90;;;8.50;100.00;98016.97;5233120;28;20201;-61
2023/03/21 04:19:50;;;;;;;4.63;4.33;;;7.60;99.90;;;8.51;100.00;98018.72;5230981;28;20200;-61
2023/03/21 04:22:30;;;;;;;4.63;4.23;;;7.60;99.90;;;8.45;100.00;98024.28;5240753;28;20679;-61
2023/03/21 04:25:04;;;;;;;5.60;5.20;;;7.60;99.90;;;8.46;100.00;98018.41;5239128;28;20208;-60
2023/03/21 04:27:37;;;;;;;5.03;4.63;;;7.60;99.90;;;8.48;100.00;98021.06;5238178;28;20630;-62
2023/03/21 04:30:12;;;;;;;5.80;5.30;;;7.60;99.90;;;8.46;100.00;98013.31;5244029;28;20668;-61
2023/03/21 04:32:55;;;;;;;5.70;5.20;;;7.60;99.90;;;8.42;100.00;98019.00;5230322;28;20200;-61
2023/03/21 04:35:29;;;;;;;6.40;5.70;;;7.60;99.90;;;8.34;100.00;98018.41;5239491;28;20244;-62
2023/03/21 04:38:02;;;;;;;5.77;5.27;;;7.50;99.90;;;8.37;100.00;98012.66;5241834;28;20204;-62
2023/03/21 04:40:35;;;;;;;5.17;4.77;;;7.60;99.90;;;8.43;100.00;98012.22;5239786;28;20206;-62
2023/03/21 04:43:09;;;;;;;5.30;4.90;;;7.60;99.90;;;8.45;100.00;98016.66;5237790;28;20275;-62
2023/03/21 04:45:43;;;;;;;5.20;4.77;;;7.60;99.90;;;8.46;100.00;98018.41;5241653;28;20203;-63
2023/03/21 04:48:18;;;;;;;5.53;5.03;;;7.60;99.90;;;8.42;100.00;98013.00;5241910;28;20529;-61
2023/03/21 04:50:51;;;;;;;5.00;4.57;;;7.60;99.90;;;8.38;100.00;98019.50;5245873;28;20202;-62
2023/03/21 04:53:24;;;;;;;5.33;4.90;;;7.60;99.90;;;8.38;100.00;98016.09;5239067;28;20228;-61
2023/03/21 04:55:57;;;;;;;5.60;5.10;;;7.60;99.90;;;8.36;100.00;98016.00;5238238;28;20197;-61
2023/03/21 04:58:31;;;;;;;5.43;5.03;;;7.60;99.90;;;8.33;100.00;98016.66;5235010;28;20210;-61
2023/03/21 05:01:06;;;;;;;5.73;5.23;;;7.60;99.90;;;8.35;100.00;98014.22;5231067;28;20207;-62
2023/03/21 05:03:39;;;;;;;6.20;5.37;;;7.60;99.90;;;8.37;100.00;98017.75;5244167;28;20247;-61
2023/03/21 05:06:12;;;;;;;6.07;5.47;;;7.60;99.90;;;8.40;100.00;98018.00;5238195;28;20228;-62
2023/03/21 05:08:45;;;;;;;5.63;5.13;;;7.60;99.90;;;8.40;100.00;98009.47;5239750;28;20205;-61
2023/03/21 05:11:18;;;;;;;5.87;5.47;;;7.60;99.90;;;8.41;100.00;98023.97;5236389;28;20288;-61
2023/03/21 05:13:51;;;;;;;5.90;5.40;;;7.60;99.90;;;8.40;100.00;98012.91;5242067;28;20612;-62
2023/03/21 05:16:29;;;;;;;6.13;5.50;;;7.60;99.90;;;8.43;100.00;98015.66;5240905;28;20669;-61
2023/03/21 05:19:03;;;;;;;6.33;5.73;;;7.70;99.90;;;8.38;100.00;98018.63;5248945;28;20613;-61
2023/03/21 05:21:40;;;;;;;5.63;5.13;;;7.60;99.90;;;8.42;100.00;98018.09;5237153;28;20204;-62
2023/03/21 05:24:16;;;;;;;6.17;5.67;;;7.70;99.90;;;8.46;100.00;98020.06;5233516;28;20270;-61
2023/03/21 05:26:51;;;;;;;5.50;5.03;;;7.60;99.90;;;8.34;100.00;98020.97;5234498;28;20292;-61
2023/03/21 05:29:24;;;;;;;5.60;5.00;;;7.60;99.90;;;8.38;100.00;98019.50;5240270;28;20559;-62
2023/03/21 05:32:00;;;;;;;5.97;5.47;;;7.60;99.90;;;8.41;100.00;98017.19;5236890;28;20193;-61
2023/03/21 05:34:33;;;;;;;5.73;5.30;;;7.60;99.90;;;8.43;100.00;98019.88;5242196;28;20646;-61
2023/03/21 05:37:06;;;;;;;6.60;5.90;;;7.60;99.90;;;8.37;100.00;98027.94;5231766;28;20207;-62
2023/03/21 05:39:39;;;;;;;6.50;6.00;;;7.60;99.90;;;8.36;100.00;98028.72;5241194;28;20197;-61
2023/03/21 05:42:12;;;;;;;6.20;5.70;;;7.60;99.90;;;8.32;100.00;98030.16;5240831;28;20222;-61
2023/03/21 05:44:45;;;;;;;6.13;5.53;;;7.60;99.90;;;8.40;100.00;98028.19;5238351;28;20231;-61
2023/03/21 05:47:20;;;;;;;6.37;5.77;;;7.60;99.90;;;8.41;100.00;98024.84;5236992;28;21496;-61
2023/03/21 05:49:53;;;;;;;6.03;5.53;;;7.60;99.90;;;8.35;100.00;98032.94;5231962;28;20300;-62
2023/03/21 05:52:28;;;;;;;5.77;5.37;;;7.60;99.90;;;8.35;100.00;98038.03;5236197;28;20200;-61
2023/03/21 05:55:01;;;;;;;5.77;5.23;;;7.60;99.90;;;8.35;100.00;98032.03;5235160;28;20222;-61
2023/03/21 05:57:38;;;;;;;5.93;5.40;;;7.60;99.90;;;8.34;100.00;98037.91;5238937;28;20582;-62
2023/03/21 06:00:12;;;;;;;6.60;6.00;;;7.60;99.90;;;8.38;100.00;98039.00;5234934;28;20208;-61
2023/03/21 06:02:47;;;;;;;5.67;5.17;;;7.60;99.90;;;8.43;100.00;98033.47;5227546;28;20562;-61
2023/03/21 06:05:20;;;;;;;6.43;5.13;;;7.70;99.90;;;8.46;100.00;98038.78;5237384;28;20246;-61
2023/03/21 06:07:53;;;;;;;5.60;5.10;;;7.70;99.90;;;8.53;100.00;98038.44;5233491;28;20653;-61
2023/03/21 06:10:26;;;;;;;6.07;5.47;;;7.70;99.90;;;8.55;100.00;98033.41;5234644;28;20291;-61
2023/03/21 06:12:59;;;;;;;5.67;5.03;;;7.80;99.90;;;8.64;100.00;98043.34;5237578;28;20639;-61
2023/03/21 06:15:32;;;;;;;5.80;5.37;;;7.80;99.90;;;8.72;100.00;98037.09;5240771;28;20315;-61
2023/03/21 06:18:07;;;;;;;5.83;5.33;;;7.90;99.90;;;8.75;100.00;98037.31;5243982;28;20200;-61
2023/03/21 06:20:40;;;;;;;5.67;5.27;;;8.00;99.90;;;8.82;100.00;98034.41;5242149;28;20712;-62
2023/03/21 06:23:14;;;;;;;5.80;5.30;;;8.00;99.90;;;8.84;100.00;98032.81;5232317;28;20643;-61
2023/03/21 06:25:48;;;;;;;6.10;5.50;;;8.10;99.90;;;8.80;100.00;98030.84;5237609;28;20195;-61
2023/03/21 06:28:21;;;;;;;5.27;4.87;;;8.00;99.90;;;8.82;100.00;98029.31;5239698;28;20292;-62
2023/03/21 06:30:54;;;;;;;5.30;4.80;;;8.00;99.90;;;8.87;100.00;98027.94;5241998;28;20203;-61
2023/03/21 06:33:29;;;;;;;6.47;5.90;;;8.10;99.90;;;8.94;100.00;98035.19;5245986;28;20236;-61
2023/03/21 06:36:02;;;;;;;6.23;5.73;;;8.10;99.90;;;8.98;100.00;98032.06;5237242;28;20227;-61
2023/03/21 06:38:36;;;;;;;5.83;5.23;;;8.10;99.90;;;9.07;99.99;98041.09;5232968;28;20215;-61
2023/03/21 06:41:10;;;;;;;6.20;5.70;;;8.20;99.90;;;9.09;99.54;98040.41;5226611;28;20204;-61
2023/03/21 06:43:43;;;;;;;6.23;5.63;;;8.20;99.90;;;9.15;99.36;98034.84;5241402;28;20227;-62
2023/03/21 06:46:16;;;;;;;6.20;5.70;;;8.20;99.90;;;9.15;99.00;98039.94;5236567;28;20279;-61
2023/03/21 06:48:51;;;;;;;6.03;5.53;;;8.20;99.90;;;9.15;99.25;98040.81;5233743;28;20205;-61
2023/03/21 06:51:24;;;;;;;6.27;5.77;;;8.30;99.90;;;9.22;99.46;98037.03;5248434;28;20224;-61
2023/03/21 06:53:57;;;;;;;6.50;5.90;;;8.30;99.90;;;9.25;99.03;98039.78;5239584;28;20763;-61
2023/03/21 06:56:30;;;;;;;5.90;5.40;;;8.30;99.90;;;9.29;98.98;98034.06;5236446;28;20220;-62
2023/03/21 06:59:03;;;;;;;7.10;6.27;;;8.40;99.90;;;9.31;99.21;98027.41;5239195;28;20561;-61
2023/03/21 07:01:36;;;;;;;7.13;6.40;;;8.40;99.90;;;9.45;99.16;98034.28;5243867;28;20200;-61
2023/03/21 07:04:11;;;;;;;6.87;6.20;;;8.50;99.90;;;9.48;98.87;98041.25;5235557;28;20224;-61
2023/03/21 07:06:44;;;;;;;6.50;5.90;;;8.60;99.90;;;9.56;99.12;98039.19;5245837;28;20702;-61
2023/03/21 07:09:20;;;;;;;6.87;6.27;;;8.60;99.90;;;9.62;98.67;98042.13;5241490;28;20652;-62
2023/03/21 07:11:53;;;;;;;6.80;6.20;;;8.70;99.90;;;9.60;98.14;98036.91;5241467;28;20197;-61
2023/03/21 07:14:26;;;;;;;7.32;6.63;;;8.80;99.90;;;9.64;97.49;98033.78;5238720;28;20735;-62
2023/03/21 07:16:59;;;;;;;8.50;7.70;;;8.80;99.90;;;9.73;97.79;98038.59;5232786;28;20217;-61
2023/03/21 07:19:33;;;;;;;7.82;7.03;;;8.90;99.90;;;9.87;96.78;98042.91;5233666;28;20212;-62
2023/03/21 07:22:06;;;;;;;7.88;7.13;;;9.00;99.90;;;9.99;96.63;98041.91;5241617;28;20202;-62
2023/03/21 07:24:39;;;;;;;7.80;7.10;;;9.10;99.90;;;10.01;95.90;98030.09;5240179;28;20224;-61
2023/03/21 07:27:12;;;;;;;7.05;6.43;;;9.20;99.90;;;10.09;96.59;98034.88;5238881;28;20205;-62
2023/03/21 07:29:46;;;;;;;7.90;7.15;;;9.20;99.90;;;10.15;96.29;98030.13;5233913;28;20558;-62
2023/03/21 07:32:19;;;;;;;7.22;6.53;;;9.30;99.90;;;10.24;96.53;98019.59;5235397;28;20664;-62
2023/03/21 07:34:53;;;;;;;6.70;6.10;;;9.40;99.90;;;10.37;94.73;98027.25;5232847;28;20353;-61
2023/03/21 07:37:27;;;;;;;6.85;6.20;;;9.50;99.90;;;10.48;94.87;98016.81;5249640;28;20291;-61
2023/03/21 07:40:00;;;;;;;7.07;6.47;;;9.60;99.90;;;10.61;94.64;98021.84;5237209;28;20772;-61
2023/03/21 07:42:33;;;;;;;7.38;6.65;;;9.70;99.90;;;10.75;95.34;98022.66;5235529;28;20196;-62
2023/03/21 07:45:09;;;;;;;7.45;6.75;;;9.90;99.90;;;10.89;93.37;98018.38;5232669;28;20312;-62
2023/03/21 07:47:42;;;;;;;6.43;5.82;;;10.00;99.90;;;11.05;93.13;98021.03;5235404;28;20618;-61
2023/03/21 07:50:17;;;;;;;7.97;6.70;;;10.10;99.90;;;11.35;89.81;98014.19;5232213;28;20205;-61
2023/03/21 07:52:50;;;;;;;7.53;6.82;;;10.30;99.90;;;11.37;88.63;98024.53;5239452;28;20208;-62
2023/03/21 07:55:23;;;;;;;7.93;7.22;;;10.40;99.90;;;11.34;88.12;98019.25;5236188;28;20235;-62
2023/03/21 07:57:56;;;;;;;8.10;7.30;;;10.40;99.90;;;11.34;88.18;98011.56;5243576;28;20196;-63
2023/03/21 08:00:30;;;;;;;8.48;7.57;;;10.40;99.90;;;11.42;88.84;98012.88;5234322;28;20696;-61
2023/03/21 08:03:04;;;;;;;8.20;6.60;;;10.50;99.90;;;11.49;87.33;98020.09;5238331;28;20230;-61
2023/03/21 08:05:39;;;;;;;8.40;7.60;;;10.50;99.90;;;11.60;86.78;98011.34;5229978;28;20201;-62
2023/03/21 08:08:13;;;;;;;7.85;7.05;;;10.60;99.90;;;11.75;86.01;98013.84;5236192;28;20192;-61
2023/03/21 08:10:46;;;;;;;8.18;7.00;;;10.70;99.90;;;11.86;85.38;98017.03;5240724;28;20203;-62
2023/03/21 08:13:19;;;;;;;7.28;6.63;;;10.80;99.90;;;11.92;85.85;98017.38;5234399;28;20226;-62
2023/03/21 08:15:52;;;;;;;8.30;7.60;;;10.90;99.90;;;12.02;85.73;98019.66;5228079;28;20577;-63
2023/03/21 08:18:25;;;;;;;7.57;6.72;;;11.00;99.90;;;12.08;86.18;98017.41;5238383;28;20639;-62
2023/03/21 08:21:00;;;;;;;7.28;6.68;;;11.10;99.90;;;12.26;84.17;98014.94;5240428;28;20197;-61
2023/03/21 08:23:33;;;;;;;6.70;6.20;;;11.30;99.90;;;12.44;82.48;98020.13;5245437;28;20259;-61
2023/03/21 08:26:08;;;;;;;6.78;6.18;;;11.40;99.90;;;12.57;81.44;98014.84;5240897;28;20205;-61
2023/03/21 08:28:41;;;;;;;6.40;5.88;;;11.60;99.90;;;12.80;78.46;98010.03;5239008;28;20290;-61
2023/03/21 08:31:14;;;;;;;6.57;5.97;;;11.80;99.90;;;13.08;76.38;98008.03;5238969;28;20216;-62
2023/03/21 08:33:49;;;;;;;5.97;5.38;;;12.10;99.90;;;13.51;73.94;98002.44;5237271;28;20239;-62
2023/03/21 08:36:25;;;;;;;5.82;5.32;;;12.60;99.90;;;13.62;72.65;98002.06;5244234;28;20295;-62
2023/03/21 08:39:04;;;;;;;6.93;6.22;;;12.80;99.90;;;13.83;71.85;98003.09;5240874;28;20562;-62
2023/03/21 08:41:38;;;;;;;6.30;5.80;;;13.00;99.90;;;13.98;71.33;98003.78;5237058;28;20238;-62
2023/03/21 08:44:11;;;;;;;6.05;5.55;;;13.20;99.90;;;14.20;71.00;97997.06;5239878;28;20209;-62
2023/03/21 08:46:44;;;;;;;5.40;4.90;;;13.50;99.90;;;14.57;67.03;97993.59;5248520;28;20244;-62
2023/03/21 08:49:18;;;;;;;4.85;4.40;;;13.90;99.90;;;14.47;63.17;97991.38;5233990;28;20205;-63
2023/03/21 08:51:55;;;;;;;4.90;4.47;;;13.70;99.90;;;14.59;65.95;97979.06;5244954;28;20204;-61
2023/03/21 08:54:29;;;;;;;4.75;4.30;;;13.80;99.90;;;14.82;63.52;97987.78;5238445;28;20224;-62
2023/03/21 08:57:02;;;;;;;4.55;4.18;;;14.10;99.90;;;14.93;61.30;97981.38;5238206;28;20304;-63
2023/03/21 08:59:35;;;;;;;4.47;4.07;;;14.20;99.90;;;15.09;60.34;97975.19;5240630;28;20211;-62
2023/03/21 09:02:09;;;;;;;3.83;3.53;;;14.40;99.90;;;15.18;62.28;97972.13;5237055;28;20299;-62
2023/03/21 09:04:44;;;;;;;5.07;3.72;;;14.50;99.90;;;15.38;60.50;97976.38;5243587;28;20224;-62
2023/03/21 09:07:18;;;;;;;4.13;3.83;;;14.70;99.90;;;15.68;58.97;97968.09;5241346;28;20203;-62
2023/03/21 09:09:52;;;;;;;4.28;3.88;;;15.00;99.90;;;15.79;56.64;97969.41;5241872;28;20199;-61
2023/03/21 09:12:45;;;;;;;3.92;3.63;;;15.10;99.90;;;15.76;56.25;97971.88;5234292;28;20197;-62
2023/03/21 09:15:23;;;;;;;4.22;3.80;;;15.00;99.90;;;15.79;57.50;97968.53;5232025;28;20291;-62
2023/03/21 09:17:57;;;;;;;3.55;3.35;;;15.00;99.90;;;15.75;54.73;97983.88;5240740;28;20747;-62
2023/03/21 09:20:31;;;;;;;3.78;3.47;;;15.00;99.90;;;15.55;55.63;97974.47;5243256;28;20676;-63
2023/03/21 09:23:06;;;;;;;3.30;3.05;;;14.80;99.90;;;15.48;56.82;97977.59;5243470;28;20208;-62
2023/03/21 09:25:40;;;;;;;3.38;3.17;;;14.70;99.90;;;15.47;56.39;97976.72;5238296;28;20615;-62
2023/03/21 09:28:13;;;;;;;4.00;3.60;;;14.60;99.90;;;15.48;55.62;97967.28;5240597;28;20196;-62
2023/03/21 09:30:46;;;;;;;3.60;3.30;;;14.60;99.90;;;15.43;56.63;97966.25;5229095;28;20272;-62
2023/03/21 09:33:20;;;;;;;3.50;3.20;;;14.60;99.90;;;15.59;55.54;97970.31;5242211;28;20227;-62
2023/03/21 09:35:54;;;;;;;3.92;3.55;;;14.80;99.90;;;15.74;54.65;97966.66;5239987;28;20211;-62
2023/03/21 09:38:35;;;;;;;3.47;3.17;;;15.00;99.90;;;15.83;55.56;97970.41;5238203;28;20204;-62
2023/03/21 09:41:26;;;;;;;3.25;3.00;;;15.10;99.90;;;16.01;53.62;97965.94;5236475;28;20292;-63
2023/03/21 09:44:23;;;;;;;3.50;3.30;;;15.20;99.60;;;16.03;54.19;97964.31;5238078;28;20225;-62
2023/03/21 09:47:05;;;;;;;4.10;3.70;;;15.30;99.90;;;16.14;53.77;97962.13;5232124;28;20617;-62
2023/03/21 09:49:43;;;;;;;3.30;3.10;;;15.50;99.60;;;16.34;54.72;97955.09;5242091;28;20204;-62
2023/03/21 09:52:23;;;;;;;4.03;3.60;;;15.60;99.90;;;16.31;53.40;97954.97;5239662;28;20193;-63
2023/03/21 09:54:58;;;;;;;4.07;3.15;;;15.60;99.00;;;16.44;52.54;97959.78;5240312;28;20224;-63
2023/03/21 09:57:38;;;;;;;3.70;3.40;;;15.70;98.60;;;16.59;52.07;97952.56;5228243;28;20220;-62
2023/03/21 10:00:23;;;;;;;2.90;2.70;;;15.90;98.40;;;16.79;51.30;97948.13;5226459;28;20204;-62
2023/03/21 10:03:05;;;;;;;3.35;3.15;;;16.10;98.10;;;16.85;50.46;97943.19;5233404;28;20283;-62
2023/03/21 10:05:43;;;;;;;3.50;3.30;;;16.30;97.00;;;16.74;50.44;97941.00;5243993;28;20204;-62
2023/03/21 10:08:22;;;;;;;2.53;2.33;;;16.20;97.00;;;16.70;51.30;97939.16;5236598;28;20706;-63
2023/03/21 10:11:04;;;;;;;2.80;2.60;;;16.10;97.30;;;16.96;49.19;97943.53;5242535;28;20657;-62
2023/03/21 10:13:44;;;;;;;3.20;2.90;;;16.30;95.90;;;17.11;46.73;97933.72;5233955;28;20221;-62
2023/03/21 10:16:25;;;;;;;3.15;2.95;;;16.40;94.40;;;16.90;50.00;97922.66;5242811;28;20193;-63
2023/03/21 10:19:01;;;;;;;3.08;2.72;;;16.20;96.30;;;16.92;50.20;97926.19;5235185;28;20282;-62
2023/03/21 10:21:34;;;;;;;2.85;2.47;;;16.20;96.70;;;17.09;48.60;97924.16;5241549;28;20294;-62
2023/03/21 10:24:29;;;;;;;2.47;2.28;;;16.40;95.50;;;17.18;46.18;97927.03;5238979;28;20220;-62
2023/03/21 10:27:05;;;;;;;2.50;2.30;;;16.40;94.30;;;17.09;45.87;97919.88;5237490;28;20243;-62
2023/03/21 10:29:43;;;;;;;2.58;2.20;;;16.30;93.70;;;17.19;45.95;97915.00;5243957;28;20243;-62
2023/03/21 10:32:18;;;;;;;2.50;2.30;;;16.40;93.80;;;17.14;46.85;97907.09;5239631;28;20296;-62
2023/03/21 10:34:55;;;;;;;2.70;2.40;;;16.40;94.60;;;17.14;46.21;97911.38;5241795;28;20314;-62
2023/03/21 10:37:35;;;;;;;2.50;2.40;;;16.40;93.70;;;17.28;45.97;97910.09;5243448;28;20664;-62
2023/03/21 10:40:16;;;;;;;2.53;2.33;;;16.50;94.00;;;17.38;46.30;97912.16;5249425;28;20199;-64
2023/03/21 10:42:51;;;;;;;2.63;2.42;;;16.70;93.80;;;17.31;46.33;97907.63;5250707;28;20204;-62
2023/03/21 10:45:25;;;;;;;2.25;2.05;;;16.60;93.50;;;17.43;44.87;97905.44;5238801;28;20260;-62
2023/03/21 10:47:58;;;;;;;3.33;2.72;;;16.80;92.90;;;17.41;46.02;97901.03;5240107;28;20193;-63
2023/03/21 10:50:31;;;;;;;2.55;2.35;;;16.70;93.40;;;17.44;46.63;97896.84;5238150;28;20223;-64
2023/03/21 10:53:17;;;;;;;2.90;2.70;;;16.60;94.50;;;17.65;45.32;97891.44;5239804;28;20258;-63
2023/03/21 10:56:00;;;;;;;2.65;2.45;;;16.90;93.60;;;17.54;45.61;97898.88;5233872;28;20219;-62
2023/03/21 10:58:42;;;;;;;2.83;2.63;;;16.80;93.50;;;17.64;46.08;97897.44;5236596;28;20581;-64
2023/03/21 11:01:29;;;;;;;2.65;2.45;;;16.90;93.50;;;17.78;44.59;97897.88;5236484;28;20546;-61
2023/03/21 11:04:09;;;;;;;2.90;2.63;;;16.80;93.00;;;17.73;44.93;97895.13;5244640;28;20598;-64
2023/03/21 11:06:46;;;;;;;2.70;2.50;;;16.90;93.30;;;17.69;46.18;97890.72;5243080;28;20287;-64
2023/03/21 11:09:23;;;;;;;2.10;1.98;;;16.90;93.40;;;17.70;45.73;97889.00;5238125;28;20620;-63